sensor_id;sensor_type;location;lat;lon;timestamp;pressure;altitude;pressure_sealevel;temperature;humidity
32456;BME280;18912;43.270;27.942;2022-12-05T00:02:05;99317.53;;;10.99;71.15
32456;BME280;18912;43.270;27.942;2022-12-05T00:04:31;99313.63;;;11.39;69.61
32456;BME280;18912;43.270;27.942;2022-12-05T00:06:56;99313.50;;;10.95;71.28
32456;BME280;18912;43.270;27.942;2022-12-05T00:09:22;99319.88;;;11.02;70.84
32456;BME280;18912;43.270;27.942;2022-12-05T00:11:47;99323.75;;;10.77;71.65
32456;BME280;18912;43.270;27.942;2022-12-05T00:14:13;99322.69;;;11.09;71.34
32456;BME280;18912;43.270;27.942;2022-12-05T00:16:41;99320.72;;;10.80;71.65
32456;BME280;18912;43.270;27.942;2022-12-05T00:19:07;99325.22;;;10.65;73.08
32456;BME280;18912;43.270;27.942;2022-12-05T00:21:35;99320.34;;;11.06;71.46
32456;BME280;18912;43.270;27.942;2022-12-05T00:24:03;99327.44;;;11.07;71.60
32456;BME280;18912;43.270;27.942;2022-12-05T00:26:30;99322.31;;;11.12;71.25
32456;BME280;18912;43.270;27.942;2022-12-05T00:28:55;99330.47;;;11.26;70.64
32456;BME280;18912;43.270;27.942;2022-12-05T00:31:22;99326.78;;;10.82;71.88
32456;BME280;18912;43.270;27.942;2022-12-05T00:33:49;99331.09;;;10.91;72.05
32456;BME280;18912;43.270;27.942;2022-12-05T00:36:19;99330.25;;;10.91;72.40
32456;BME280;18912;43.270;27.942;2022-12-05T00:38:46;99328.41;;;10.91;72.31
32456;BME280;18912;43.270;27.942;2022-12-05T00:41:31;99324.75;;;10.84;72.12
32456;BME280;18912;43.270;27.942;2022-12-05T00:43:58;99318.59;;;10.90;72.07
32456;BME280;18912;43.270;27.942;2022-12-05T00:46:26;99319.69;;;10.81;72.43
32456;BME280;18912;43.270;27.942;2022-12-05T00:48:53;99316.78;;;10.83;72.36
32456;BME280;18912;43.270;27.942;2022-12-05T00:51:28;99309.53;;;10.83;72.38
32456;BME280;18912;43.270;27.942;2022-12-05T00:53:57;99312.00;;;10.93;71.74
32456;BME280;18912;43.270;27.942;2022-12-05T00:56:24;99298.16;;;11.10;71.55
32456;BME280;18912;43.270;27.942;2022-12-05T00:58:52;99309.56;;;10.75;72.14
32456;BME280;18912;43.270;27.942;2022-12-05T01:01:20;99302.97;;;11.00;71.92
32456;BME280;18912;43.270;27.942;2022-12-05T01:03:46;99298.31;;;11.32;70.89
32456;BME280;18912;43.270;27.942;2022-12-05T01:06:14;99303.41;;;10.89;71.86
32456;BME280;18912;43.270;27.942;2022-12-05T01:08:41;99289.50;;;11.15;71.34
32456;BME280;18912;43.270;27.942;2022-12-05T01:11:08;99289.72;;;11.43;70.05
32456;BME280;18912;43.270;27.942;2022-12-05T01:13:34;99298.00;;;11.26;70.36
32456;BME280;18912;43.270;27.942;2022-12-05T01:16:00;99299.34;;;11.08;71.10
32456;BME280;18912;43.270;27.942;2022-12-05T01:18:26;99303.94;;;10.85;71.63
32456;BME280;18912;43.270;27.942;2022-12-05T01:20:52;99289.97;;;11.18;71.05
32456;BME280;18912;43.270;27.942;2022-12-05T01:23:18;99287.44;;;10.94;71.34
32456;BME280;18912;43.270;27.942;2022-12-05T01:25:46;99279.47;;;10.78;72.55
32456;BME280;18912;43.270;27.942;2022-12-05T01:28:13;99291.28;;;11.00;71.70
32456;BME280;18912;43.270;27.942;2022-12-05T01:30:40;99289.66;;;11.13;70.96
32456;BME280;18912;43.270;27.942;2022-12-05T01:33:06;99294.31;;;11.05;71.39
32456;BME280;18912;43.270;27.942;2022-12-05T01:35:33;99293.25;;;10.91;71.29
32456;BME280;18912;43.270;27.942;2022-12-05T01:37:59;99283.75;;;10.73;72.54
32456;BME280;18912;43.270;27.942;2022-12-05T01:40:26;99291.19;;;10.93;72.21
32456;BME280;18912;43.270;27.942;2022-12-05T01:42:52;99274.59;;;11.34;70.12
32456;BME280;18912;43.270;27.942;2022-12-05T01:45:43;99279.53;;;10.93;71.33
32456;BME280;18912;43.270;27.942;2022-12-05T01:48:13;99272.09;;;10.72;72.19
32456;BME280;18912;43.270;27.942;2022-12-05T01:50:41;99269.00;;;10.53;73.02
32456;BME280;18912;43.270;27.942;2022-12-05T01:53:07;99276.16;;;10.68;72.79
32456;BME280;18912;43.270;27.942;2022-12-05T01:55:34;99272.78;;;10.66;72.53
32456;BME280;18912;43.270;27.942;2022-12-05T01:58:01;99258.94;;;10.69;72.51
32456;BME280;18912;43.270;27.942;2022-12-05T02:00:27;99260.53;;;11.01;71.51
32456;BME280;18912;43.270;27.942;2022-12-05T02:02:57;99249.34;;;10.81;72.51
32456;BME280;18912;43.270;27.942;2022-12-05T02:05:35;99246.16;;;11.00;71.44
32456;BME280;18912;43.270;27.942;2022-12-05T02:08:04;99243.44;;;11.00;71.20
32456;BME280;18912;43.270;27.942;2022-12-05T02:10:36;99243.81;;;10.97;71.65
32456;BME280;18912;43.270;27.942;2022-12-05T02:18:50;99251.81;;;10.91;71.86
32456;BME280;18912;43.270;27.942;2022-12-05T02:21:51;99244.72;;;10.90;72.36
32456;BME280;18912;43.270;27.942;2022-12-05T02:30:20;99237.72;;;10.81;72.92
32456;BME280;18912;43.270;27.942;2022-12-05T02:33:10;99249.53;;;10.34;74.10
32456;BME280;18912;43.270;27.942;2022-12-05T02:35:54;99240.91;;;10.84;72.25
32456;BME280;18912;43.270;27.942;2022-12-05T02:46:22;99255.25;;;10.62;72.96
32456;BME280;18912;43.270;27.942;2022-12-05T02:48:51;99257.91;;;10.70;72.48
32456;BME280;18912;43.270;27.942;2022-12-05T02:51:21;99254.34;;;10.70;72.31
32456;BME280;18912;43.270;27.942;2022-12-05T02:53:49;99264.25;;;10.77;72.07
32456;BME280;18912;43.270;27.942;2022-12-05T02:56:16;99258.13;;;10.83;72.53
32456;BME280;18912;43.270;27.942;2022-12-05T02:58:50;99255.72;;;10.43;74.19
32456;BME280;18912;43.270;27.942;2022-12-05T03:01:22;99262.53;;;10.62;73.68
32456;BME280;18912;43.270;27.942;2022-12-05T03:03:48;99266.06;;;10.85;72.11
32456;BME280;18912;43.270;27.942;2022-12-05T03:06:18;99264.44;;;10.76;72.86
32456;BME280;18912;43.270;27.942;2022-12-05T03:08:55;99264.84;;;11.10;71.07
32456;BME280;18912;43.270;27.942;2022-12-05T03:11:25;99271.66;;;10.83;72.17
32456;BME280;18912;43.270;27.942;2022-12-05T03:13:58;99276.06;;;10.84;72.16
32456;BME280;18912;43.270;27.942;2022-12-05T03:16:33;99271.97;;;10.88;71.70
32456;BME280;18912;43.270;27.942;2022-12-05T03:19:05;99272.44;;;10.92;71.97
32456;BME280;18912;43.270;27.942;2022-12-05T03:21:48;99277.72;;;10.85;72.60
32456;BME280;18912;43.270;27.942;2022-12-05T03:24:15;99288.50;;;10.93;72.09
32456;BME280;18912;43.270;27.942;2022-12-05T03:42:43;99269.16;;;10.96;72.76
32456;BME280;18912;43.270;27.942;2022-12-05T03:45:15;99271.31;;;11.23;72.00
32456;BME280;18912;43.270;27.942;2022-12-05T03:50:46;99271.13;;;11.25;71.77
32456;BME280;18912;43.270;27.942;2022-12-05T03:53:20;99280.88;;;11.11;72.22
32456;BME280;18912;43.270;27.942;2022-12-05T03:55:53;99278.03;;;11.27;72.42
32456;BME280;18912;43.270;27.942;2022-12-05T03:58:27;99275.47;;;11.11;71.89
32456;BME280;18912;43.270;27.942;2022-12-05T04:00:57;99284.97;;;11.45;71.59
32456;BME280;18912;43.270;27.942;2022-12-05T04:06:07;99283.28;;;11.44;71.00
32456;BME280;18912;43.270;27.942;2022-12-05T04:08:39;99285.09;;;11.14;72.19
32456;BME280;18912;43.270;27.942;2022-12-05T04:11:15;99279.66;;;10.99;72.87
32456;BME280;18912;43.270;27.942;2022-12-05T04:13:47;99284.59;;;11.48;71.27
32456;BME280;18912;43.270;27.942;2022-12-05T04:16:59;99288.78;;;10.98;73.32
32456;BME280;18912;43.270;27.942;2022-12-05T04:22:27;99279.03;;;10.89;73.76
32456;BME280;18912;43.270;27.942;2022-12-05T04:24:55;99282.59;;;10.90;73.84
32456;BME280;18912;43.270;27.942;2022-12-05T04:33:53;99283.97;;;11.08;73.09
32456;BME280;18912;43.270;27.942;2022-12-05T04:36:33;99286.63;;;10.94;73.48
32456;BME280;18912;43.270;27.942;2022-12-05T04:39:04;99291.44;;;10.84;73.73
32456;BME280;18912;43.270;27.942;2022-12-05T04:42:15;99283.50;;;11.05;73.30
32456;BME280;18912;43.270;27.942;2022-12-05T04:44:52;99293.53;;;10.96;73.25
32456;BME280;18912;43.270;27.942;2022-12-05T04:47:21;99289.72;;;10.38;75.32
32456;BME280;18912;43.270;27.942;2022-12-05T04:49:50;99283.38;;;10.76;74.53
32456;BME280;18912;43.270;27.942;2022-12-05T04:52:17;99293.38;;;10.98;73.84
32456;BME280;18912;43.270;27.942;2022-12-05T04:54:46;99300.25;;;10.78;74.52
32456;BME280;18912;43.270;27.942;2022-12-05T04:57:26;99299.00;;;11.11;73.50
32456;BME280;18912;43.270;27.942;2022-12-05T04:59:54;99304.66;;;11.01;73.14
32456;BME280;18912;43.270;27.942;2022-12-05T05:02:27;99300.03;;;11.24;72.55
32456;BME280;18912;43.270;27.942;2022-12-05T05:04:57;99298.59;;;11.37;72.17
32456;BME280;18912;43.270;27.942;2022-12-05T05:07:25;99307.16;;;11.25;72.29
32456;BME280;18912;43.270;27.942;2022-12-05T05:09:51;99307.38;;;11.53;71.31
32456;BME280;18912;43.270;27.942;2022-12-05T05:12:16;99303.78;;;11.23;71.64
32456;BME280;18912;43.270;27.942;2022-12-05T05:14:42;99301.09;;;11.23;72.32
32456;BME280;18912;43.270;27.942;2022-12-05T05:17:07;99305.31;;;11.03;72.18
32456;BME280;18912;43.270;27.942;2022-12-05T05:19:33;99301.16;;;11.15;72.54
32456;BME280;18912;43.270;27.942;2022-12-05T05:21:58;99304.00;;;11.37;71.80
32456;BME280;18912;43.270;27.942;2022-12-05T05:24:24;99302.44;;;11.42;71.41
32456;BME280;18912;43.270;27.942;2022-12-05T05:26:51;99303.66;;;11.40;71.71
32456;BME280;18912;43.270;27.942;2022-12-05T05:29:16;99309.97;;;11.09;71.96
32456;BME280;18912;43.270;27.942;2022-12-05T05:31:42;99300.28;;;11.38;71.83
32456;BME280;18912;43.270;27.942;2022-12-05T05:34:09;99304.84;;;11.37;71.92
32456;BME280;18912;43.270;27.942;2022-12-05T05:36:35;99304.25;;;11.27;71.79
32456;BME280;18912;43.270;27.942;2022-12-05T05:39:02;99308.03;;;11.03;72.61
32456;BME280;18912;43.270;27.942;2022-12-05T05:41:31;99307.03;;;11.19;71.93
32456;BME280;18912;43.270;27.942;2022-12-05T05:43:57;99309.31;;;11.30;71.54
32456;BME280;18912;43.270;27.942;2022-12-05T05:46:24;99307.13;;;11.63;70.52
32456;BME280;18912;43.270;27.942;2022-12-05T05:48:50;99305.91;;;11.51;70.54
32456;BME280;18912;43.270;27.942;2022-12-05T05:51:17;99313.56;;;11.62;70.10
32456;BME280;18912;43.270;27.942;2022-12-05T05:53:43;99314.53;;;11.69;69.84
32456;BME280;18912;43.270;27.942;2022-12-05T05:56:11;99313.44;;;11.41;70.52
32456;BME280;18912;43.270;27.942;2022-12-05T05:58:37;99306.47;;;11.61;70.10
32456;BME280;18912;43.270;27.942;2022-12-05T06:01:06;99317.47;;;11.59;70.20
32456;BME280;18912;43.270;27.942;2022-12-05T06:03:32;99315.34;;;11.55;70.63
32456;BME280;18912;43.270;27.942;2022-12-05T06:05:59;99310.06;;;11.76;69.68
32456;BME280;18912;43.270;27.942;2022-12-05T06:08:28;99313.06;;;11.81;69.85
32456;BME280;18912;43.270;27.942;2022-12-05T06:10:54;99309.81;;;11.63;69.85
32456;BME280;18912;43.270;27.942;2022-12-05T06:13:19;99309.09;;;11.54;70.38
32456;BME280;18912;43.270;27.942;2022-12-05T06:15:44;99311.59;;;11.41;70.90
32456;BME280;18912;43.270;27.942;2022-12-05T06:18:10;99320.72;;;11.40;70.73
32456;BME280;18912;43.270;27.942;2022-12-05T06:20:35;99320.91;;;11.90;69.81
32456;BME280;18912;43.270;27.942;2022-12-05T06:23:01;99316.25;;;11.84;69.68
32456;BME280;18912;43.270;27.942;2022-12-05T06:25:26;99326.16;;;12.21;68.54
32456;BME280;18912;43.270;27.942;2022-12-05T06:27:52;99313.53;;;11.84;69.58
32456;BME280;18912;43.270;27.942;2022-12-05T06:30:17;99325.56;;;11.82;69.61
32456;BME280;18912;43.270;27.942;2022-12-05T06:32:43;99317.56;;;11.74;70.06
32456;BME280;18912;43.270;27.942;2022-12-05T06:35:08;99330.16;;;11.96;69.29
32456;BME280;18912;43.270;27.942;2022-12-05T06:37:42;99329.78;;;11.99;69.37
32456;BME280;18912;43.270;27.942;2022-12-05T06:40:09;99323.06;;;11.80;69.46
32456;BME280;18912;43.270;27.942;2022-12-05T06:42:35;99331.09;;;11.74;70.19
32456;BME280;18912;43.270;27.942;2022-12-05T06:45:01;99327.47;;;11.96;69.25
32456;BME280;18912;43.270;27.942;2022-12-05T06:47:26;99331.09;;;11.74;69.53
32456;BME280;18912;43.270;27.942;2022-12-05T06:49:52;99329.22;;;12.03;68.89
32456;BME280;18912;43.270;27.942;2022-12-05T06:52:17;99341.00;;;11.81;69.64
32456;BME280;18912;43.270;27.942;2022-12-05T06:54:43;99337.72;;;11.86;69.93
32456;BME280;18912;43.270;27.942;2022-12-05T06:57:08;99335.47;;;11.75;69.88
32456;BME280;18912;43.270;27.942;2022-12-05T06:59:34;99337.63;;;11.94;69.43
32456;BME280;18912;43.270;27.942;2022-12-05T07:01:59;99340.97;;;11.29;70.97
32456;BME280;18912;43.270;27.942;2022-12-05T07:04:25;99341.28;;;12.01;69.46
32456;BME280;18912;43.270;27.942;2022-12-05T07:06:53;99336.22;;;11.69;70.39
32456;BME280;18912;43.270;27.942;2022-12-05T07:09:23;99332.75;;;11.89;69.70
32456;BME280;18912;43.270;27.942;2022-12-05T07:12:11;99340.16;;;11.81;69.90
32456;BME280;18912;43.270;27.942;2022-12-05T07:14:36;99338.09;;;11.83;69.60
32456;BME280;18912;43.270;27.942;2022-12-05T07:17:02;99343.13;;;11.86;70.52
32456;BME280;18912;43.270;27.942;2022-12-05T07:19:28;99348.75;;;11.99;69.59
32456;BME280;18912;43.270;27.942;2022-12-05T07:21:54;99336.03;;;11.70;70.65
32456;BME280;18912;43.270;27.942;2022-12-05T07:24:19;99338.75;;;12.14;69.21
32456;BME280;18912;43.270;27.942;2022-12-05T07:26:45;99345.38;;;12.26;68.91
32456;BME280;18912;43.270;27.942;2022-12-05T07:29:10;99342.41;;;11.92;69.66
32456;BME280;18912;43.270;27.942;2022-12-05T07:31:36;99339.50;;;12.23;68.76
32456;BME280;18912;43.270;27.942;2022-12-05T07:34:01;99338.59;;;12.66;67.10
32456;BME280;18912;43.270;27.942;2022-12-05T07:36:27;99337.59;;;12.52;67.47
32456;BME280;18912;43.270;27.942;2022-12-05T07:38:54;99347.97;;;12.49;67.27
32456;BME280;18912;43.270;27.942;2022-12-05T07:41:25;99338.00;;;12.20;68.64
32456;BME280;18912;43.270;27.942;2022-12-05T07:43:53;99343.25;;;11.92;69.81
32456;BME280;18912;43.270;27.942;2022-12-05T07:46:19;99341.38;;;12.07;68.92
32456;BME280;18912;43.270;27.942;2022-12-05T07:48:46;99350.53;;;12.21;68.71
32456;BME280;18912;43.270;27.942;2022-12-05T07:51:12;99348.66;;;12.21;68.46
32456;BME280;18912;43.270;27.942;2022-12-05T07:53:38;99350.38;;;12.08;69.10
32456;BME280;18912;43.270;27.942;2022-12-05T07:56:06;99354.81;;;12.45;68.14
32456;BME280;18912;43.270;27.942;2022-12-05T07:58:33;99355.13;;;12.20;68.72
32456;BME280;18912;43.270;27.942;2022-12-05T08:01:10;99363.69;;;12.53;67.51
32456;BME280;18912;43.270;27.942;2022-12-05T08:03:36;99364.22;;;12.63;67.39
32456;BME280;18912;43.270;27.942;2022-12-05T08:06:05;99363.53;;;12.11;68.46
32456;BME280;18912;43.270;27.942;2022-12-05T08:08:31;99358.09;;;12.11;68.73
32456;BME280;18912;43.270;27.942;2022-12-05T08:11:03;99356.63;;;12.23;68.07
32456;BME280;18912;43.270;27.942;2022-12-05T08:13:28;99352.59;;;12.19;68.20
32456;BME280;18912;43.270;27.942;2022-12-05T08:15:54;99356.78;;;12.21;68.61
32456;BME280;18912;43.270;27.942;2022-12-05T08:18:19;99355.75;;;12.37;68.03
32456;BME280;18912;43.270;27.942;2022-12-05T08:20:45;99355.25;;;12.48;67.75
32456;BME280;18912;43.270;27.942;2022-12-05T08:23:10;99362.13;;;12.30;67.82
32456;BME280;18912;43.270;27.942;2022-12-05T08:25:36;99356.56;;;12.67;67.24
32456;BME280;18912;43.270;27.942;2022-12-05T08:28:01;99359.84;;;12.62;66.83
32456;BME280;18912;43.270;27.942;2022-12-05T08:30:27;99351.25;;;12.44;67.40
32456;BME280;18912;43.270;27.942;2022-12-05T08:32:52;99353.13;;;12.44;67.66
32456;BME280;18912;43.270;27.942;2022-12-05T08:35:18;99352.09;;;12.59;67.36
32456;BME280;18912;43.270;27.942;2022-12-05T08:37:43;99355.63;;;12.60;67.08
32456;BME280;18912;43.270;27.942;2022-12-05T08:40:09;99343.56;;;12.62;67.12
32456;BME280;18912;43.270;27.942;2022-12-05T08:42:35;99353.91;;;12.73;66.62
32456;BME280;18912;43.270;27.942;2022-12-05T08:45:00;99348.28;;;12.39;67.56
32456;BME280;18912;43.270;27.942;2022-12-05T08:47:26;99354.50;;;12.54;67.29
32456;BME280;18912;43.270;27.942;2022-12-05T08:49:51;99353.34;;;12.42;67.22
32456;BME280;18912;43.270;27.942;2022-12-05T08:52:17;99348.88;;;12.70;66.83
32456;BME280;18912;43.270;27.942;2022-12-05T08:54:42;99346.28;;;12.62;67.22
32456;BME280;18912;43.270;27.942;2022-12-05T08:57:07;99343.66;;;12.54;67.17
32456;BME280;18912;43.270;27.942;2022-12-05T08:59:33;99333.66;;;12.90;66.14
32456;BME280;18912;43.270;27.942;2022-12-05T09:01:58;99344.78;;;12.60;66.84
32456;BME280;18912;43.270;27.942;2022-12-05T09:04:24;99347.00;;;12.92;66.57
32456;BME280;18912;43.270;27.942;2022-12-05T09:06:49;99335.69;;;12.67;66.88
32456;BME280;18912;43.270;27.942;2022-12-05T09:09:15;99337.41;;;12.89;66.60
32456;BME280;18912;43.270;27.942;2022-12-05T09:11:42;99336.47;;;12.82;66.34
32456;BME280;18912;43.270;27.942;2022-12-05T09:14:13;99335.50;;;12.90;66.18
32456;BME280;18912;43.270;27.942;2022-12-05T09:16:39;99329.31;;;12.96;66.31
32456;BME280;18912;43.270;27.942;2022-12-05T09:19:16;99321.75;;;12.70;66.33
32456;BME280;18912;43.270;27.942;2022-12-05T09:21:43;99329.91;;;12.91;66.59
32456;BME280;18912;43.270;27.942;2022-12-05T09:24:10;99330.72;;;13.28;65.27
32456;BME280;18912;43.270;27.942;2022-12-05T09:26:36;99324.44;;;13.27;64.97
32456;BME280;18912;43.270;27.942;2022-12-05T09:29:02;99313.91;;;13.18;65.35
32456;BME280;18912;43.270;27.942;2022-12-05T09:31:28;99313.28;;;13.43;64.32
32456;BME280;18912;43.270;27.942;2022-12-05T09:33:54;99312.81;;;13.33;64.29
32456;BME280;18912;43.270;27.942;2022-12-05T09:36:23;99315.31;;;13.35;63.60
32456;BME280;18912;43.270;27.942;2022-12-05T09:38:49;99312.03;;;13.67;63.51
32456;BME280;18912;43.270;27.942;2022-12-05T09:41:55;99302.97;;;13.32;63.62
32456;BME280;18912;43.270;27.942;2022-12-05T09:44:57;99309.78;;;13.22;63.89
32456;BME280;18912;43.270;27.942;2022-12-05T09:52:30;99303.72;;;14.09;61.41
32456;BME280;18912;43.270;27.942;2022-12-05T09:55:02;99303.53;;;13.76;62.00
32456;BME280;18912;43.270;27.942;2022-12-05T09:57:35;99300.81;;;13.83;61.94
32456;BME280;18912;43.270;27.942;2022-12-05T10:00:03;99294.94;;;14.07;61.25
32456;BME280;18912;43.270;27.942;2022-12-05T10:05:47;99304.53;;;14.09;60.04
32456;BME280;18912;43.270;27.942;2022-12-05T10:08:21;99313.97;;;14.07;59.56
32456;BME280;18912;43.270;27.942;2022-12-05T10:10:58;99307.66;;;14.41;59.04
32456;BME280;18912;43.270;27.942;2022-12-05T10:16:13;99303.13;;;14.54;58.29
32456;BME280;18912;43.270;27.942;2022-12-05T10:18:58;99305.00;;;14.13;59.18
32456;BME280;18912;43.270;27.942;2022-12-05T10:21:33;99294.53;;;13.76;59.62
32456;BME280;18912;43.270;27.942;2022-12-05T10:24:12;99293.56;;;13.90;59.31
32456;BME280;18912;43.270;27.942;2022-12-05T10:26:52;99295.94;;;14.06;58.92
32456;BME280;18912;43.270;27.942;2022-12-05T10:29:37;99298.72;;;14.13;58.62
32456;BME280;18912;43.270;27.942;2022-12-05T10:32:12;99289.22;;;14.02;58.28
32456;BME280;18912;43.270;27.942;2022-12-05T10:34:41;99281.75;;;14.45;57.78
32456;BME280;18912;43.270;27.942;2022-12-05T10:39:38;99290.94;;;14.44;58.32
32456;BME280;18912;43.270;27.942;2022-12-05T10:42:05;99288.59;;;14.34;58.33
32456;BME280;18912;43.270;27.942;2022-12-05T10:44:32;99283.41;;;14.46;58.40
32456;BME280;18912;43.270;27.942;2022-12-05T10:46:58;99282.47;;;14.26;58.28
32456;BME280;18912;43.270;27.942;2022-12-05T10:49:24;99280.44;;;14.34;58.37
32456;BME280;18912;43.270;27.942;2022-12-05T10:51:50;99276.63;;;14.29;59.08
32456;BME280;18912;43.270;27.942;2022-12-05T10:54:20;99274.16;;;14.34;59.06
32456;BME280;18912;43.270;27.942;2022-12-05T10:56:49;99271.03;;;13.96;59.32
32456;BME280;18912;43.270;27.942;2022-12-05T10:59:17;99273.78;;;13.68;60.60
32456;BME280;18912;43.270;27.942;2022-12-05T11:01:54;99267.09;;;14.05;59.48
32456;BME280;18912;43.270;27.942;2022-12-05T11:07:01;99260.53;;;13.93;60.08
32456;BME280;18912;43.270;27.942;2022-12-05T11:09:28;99255.09;;;14.27;59.39
32456;BME280;18912;43.270;27.942;2022-12-05T11:12:17;99259.13;;;14.38;59.20
32456;BME280;18912;43.270;27.942;2022-12-05T11:17:30;99257.09;;;14.72;58.58
32456;BME280;18912;43.270;27.942;2022-12-05T11:19:56;99249.81;;;14.79;57.85
32456;BME280;18912;43.270;27.942;2022-12-05T11:22:30;99253.81;;;15.10;57.49
32456;BME280;18912;43.270;27.942;2022-12-05T11:24:56;99251.09;;;14.83;57.65
32456;BME280;18912;43.270;27.942;2022-12-05T11:27:30;99254.19;;;14.80;57.08
32456;BME280;18912;43.270;27.942;2022-12-05T11:30:14;99247.41;;;14.37;58.22
32456;BME280;18912;43.270;27.942;2022-12-05T11:32:43;99245.38;;;14.65;57.88
32456;BME280;18912;43.270;27.942;2022-12-05T11:37:56;99243.13;;;14.88;57.68
32456;BME280;18912;43.270;27.942;2022-12-05T11:46:26;99227.81;;;14.87;57.88
32456;BME280;18912;43.270;27.942;2022-12-05T11:48:59;99232.84;;;14.64;58.24
32456;BME280;18912;43.270;27.942;2022-12-05T11:51:39;99229.47;;;14.62;58.34
32456;BME280;18912;43.270;27.942;2022-12-05T11:57:03;99218.59;;;14.95;57.54
32456;BME280;18912;43.270;27.942;2022-12-05T12:05:34;99219.00;;;14.72;57.23
32456;BME280;18912;43.270;27.942;2022-12-05T12:08:24;99214.44;;;14.92;56.88
32456;BME280;18912;43.270;27.942;2022-12-05T12:11:30;99209.81;;;14.93;56.81
32456;BME280;18912;43.270;27.942;2022-12-05T12:17:01;99199.06;;;14.46;57.30
32456;BME280;18912;43.270;27.942;2022-12-05T12:30:56;99191.41;;;14.88;57.45
32456;BME280;18912;43.270;27.942;2022-12-05T12:39:18;99192.66;;;14.99;57.21
32456;BME280;18912;43.270;27.942;2022-12-05T12:50:20;99194.94;;;14.82;57.39
32456;BME280;18912;43.270;27.942;2022-12-05T13:06:50;99183.47;;;14.14;58.75
32456;BME280;18912;43.270;27.942;2022-12-05T13:11:55;99185.34;;;14.06;58.95
32456;BME280;18912;43.270;27.942;2022-12-05T13:14:24;99186.06;;;14.28;58.51
32456;BME280;18912;43.270;27.942;2022-12-05T13:16:53;99187.56;;;14.37;58.64
32456;BME280;18912;43.270;27.942;2022-12-05T13:19:25;99181.16;;;14.17;59.25
32456;BME280;18912;43.270;27.942;2022-12-05T13:21:52;99187.50;;;14.24;59.12
32456;BME280;18912;43.270;27.942;2022-12-05T13:24:24;99189.97;;;14.13;59.57
32456;BME280;18912;43.270;27.942;2022-12-05T13:26:50;99191.31;;;14.30;59.24
32456;BME280;18912;43.270;27.942;2022-12-05T13:29:50;99189.16;;;14.19;59.50
32456;BME280;18912;43.270;27.942;2022-12-05T13:32:39;99178.19;;;13.99;60.42
32456;BME280;18912;43.270;27.942;2022-12-05T13:35:17;99181.59;;;14.14;60.23
32456;BME280;18912;43.270;27.942;2022-12-05T13:38:03;99182.88;;;14.18;60.27
32456;BME280;18912;43.270;27.942;2022-12-05T13:40:51;99181.16;;;14.17;60.47
32456;BME280;18912;43.270;27.942;2022-12-05T13:43:41;99175.38;;;13.79;61.43
32456;BME280;18912;43.270;27.942;2022-12-05T13:46:10;99176.66;;;13.77;62.15
32456;BME280;18912;43.270;27.942;2022-12-05T13:48:43;99181.88;;;13.85;61.48
32456;BME280;18912;43.270;27.942;2022-12-05T13:53:47;99179.41;;;13.90;61.97
32456;BME280;18912;43.270;27.942;2022-12-05T13:58:45;99188.72;;;14.15;61.00
32456;BME280;18912;43.270;27.942;2022-12-05T14:17:42;99168.88;;;13.74;62.76
32456;BME280;18912;43.270;27.942;2022-12-05T14:28:47;99182.41;;;13.61;62.62
32456;BME280;18912;43.270;27.942;2022-12-05T14:33:39;99179.75;;;13.33;63.68
32456;BME280;18912;43.270;27.942;2022-12-05T14:36:06;99174.47;;;13.32;64.07
32456;BME280;18912;43.270;27.942;2022-12-05T14:38:37;99178.41;;;13.23;64.16
32456;BME280;18912;43.270;27.942;2022-12-05T14:41:23;99179.47;;;13.62;63.31
32456;BME280;18912;43.270;27.942;2022-12-05T14:43:52;99177.38;;;13.58;63.09
32456;BME280;18912;43.270;27.942;2022-12-05T14:46:25;99172.88;;;13.78;62.36
32456;BME280;18912;43.270;27.942;2022-12-05T14:48:52;99176.25;;;13.46;63.38
32456;BME280;18912;43.270;27.942;2022-12-05T14:54:06;99181.88;;;13.44;63.97
32456;BME280;18912;43.270;27.942;2022-12-05T14:56:40;99187.44;;;13.64;62.97
32456;BME280;18912;43.270;27.942;2022-12-05T14:59:23;99190.78;;;13.66;62.69
32456;BME280;18912;43.270;27.942;2022-12-05T15:01:54;99190.25;;;13.83;62.68
32456;BME280;18912;43.270;27.942;2022-12-05T15:04:35;99190.13;;;13.98;62.15
32456;BME280;18912;43.270;27.942;2022-12-05T15:07:11;99189.59;;;13.41;64.05
32456;BME280;18912;43.270;27.942;2022-12-05T15:12:27;99190.38;;;13.69;63.06
32456;BME280;18912;43.270;27.942;2022-12-05T15:15:16;99191.88;;;13.71;62.91
32456;BME280;18912;43.270;27.942;2022-12-05T15:17:45;99198.78;;;13.74;63.05
32456;BME280;18912;43.270;27.942;2022-12-05T15:22:55;99197.81;;;13.94;62.06
32456;BME280;18912;43.270;27.942;2022-12-05T15:25:26;99203.72;;;13.98;61.97
32456;BME280;18912;43.270;27.942;2022-12-05T15:28:03;99198.56;;;13.75;62.15
32456;BME280;18912;43.270;27.942;2022-12-05T15:30:30;99198.22;;;13.91;62.10
32456;BME280;18912;43.270;27.942;2022-12-05T15:32:57;99201.00;;;13.98;61.94
32456;BME280;18912;43.270;27.942;2022-12-05T15:35:26;99201.81;;;13.92;61.98
32456;BME280;18912;43.270;27.942;2022-12-05T15:37:56;99193.38;;;13.80;62.36
32456;BME280;18912;43.270;27.942;2022-12-05T15:40:24;99197.00;;;14.00;62.05
32456;BME280;18912;43.270;27.942;2022-12-05T15:42:53;99200.03;;;13.78;62.35
32456;BME280;18912;43.270;27.942;2022-12-05T15:45:25;99197.75;;;13.75;62.68
32456;BME280;18912;43.270;27.942;2022-12-05T15:50:36;99191.94;;;13.84;62.19
32456;BME280;18912;43.270;27.942;2022-12-05T16:01:22;99192.84;;;13.98;61.97
32456;BME280;18912;43.270;27.942;2022-12-05T16:06:38;99195.41;;;13.65;62.83
32456;BME280;18912;43.270;27.942;2022-12-05T16:09:15;99193.97;;;13.76;62.28
32456;BME280;18912;43.270;27.942;2022-12-05T16:11:54;99189.44;;;13.89;62.05
32456;BME280;18912;43.270;27.942;2022-12-05T16:14:21;99195.69;;;13.83;62.23